• Join FlightAware (Why Join?)
  • Login
  • US Flag 
11:10PM EDT


 

Airport Tracker/Info


-or-


 

Live Flight TrackerFlight Track Log ✈ DAL3794 ✈ 23-Aug-2013 ✈ KPIT - KDTW

Flight Track Log - Related Links

Times and Time Zones

All times are in EDT time to prevent confusion due to time zone crossing. See the DAL3794 flight status page for this flight to view local times or setup timezone preferences in your user account.

Time Position Orientation Groundspeed Altitude Reporting Facility
EDT Latitude Longitude Course Direction KTS MPH feet Rate Location/Type
03:27PM 40.5314 -80.1706 33° Northeast 248 285 3,300  Level Cleveland Center
03:28PM 40.5364 -80.4987 285° West  Level FlightAware Approximate
03:28PM 40.5483 -80.2497 286° West 256 295 6,100  Level Cleveland Center
03:29PM 40.5552 -80.5925 285° West  Level FlightAware Approximate
03:29PM 40.5653 -80.3453 283° West 256 295 8,900  Level Cleveland Center
03:30PM 40.5740 -80.6863 285° West  Level FlightAware Approximate
03:30PM 40.5842 -80.4519 283° West 270 311 10,800  Level Cleveland Center
03:31PM 40.5963 -80.7786 291° West  Level FlightAware Approximate
03:31PM 40.6156 -80.5831 288° West 309 356 11,800  Level Cleveland Center
03:32PM 40.6694 -80.7008 301° West 362 417 13,300 1,440 Climbing Cleveland Center
03:33PM 40.7256 -80.8022 306° West 375 432 14,700 1,260 Climbing Cleveland Center
03:34PM 40.7711 -80.9286 295° West 380 437 15,900 1,320 Climbing Cleveland Center
03:35PM 40.8144 -81.0769 291° West 390 449 17,400 1,080 Climbing Cleveland Center
03:36PM 40.8703 -81.1981 301° West 390 449 18,100 840 Climbing Cleveland Center
03:37PM 40.9319 -81.3169 304° West 395 455 19,100 900 Climbing Cleveland Center
03:38PM 40.9917 -81.4358 304° West 395 455 20,000 420 Climbing Cleveland Center
03:39PM 41.0469 -81.5439 304° West 395 455 20,000  Level Cleveland Center
03:40PM 41.1064 -81.6633 303° West 395 455 20,000  Level Cleveland Center
03:41PM 41.1719 -81.7803 307° West 395 455 20,000  Level Cleveland Center
03:42PM 41.2311 -81.9000 303° West 395 455 20,000  Level Cleveland Center
03:43PM 41.2900 -82.0200 303° West 395 455 20,000  Level Cleveland Center
03:44PM 41.3531 -82.1542 302° West 395 455 20,000  Level Cleveland Center
03:45PM 41.4203 -82.2667 309° West 395 455 20,000 -480 Level Cleveland Center
03:46PM 41.4872 -82.3794 308° West 395 455 19,100 -1,560 Descending Cleveland Center
03:47PM 41.5542 -82.4894 309° West 389 448 16,900 -2,280 Descending Cleveland Center
03:48PM 41.6211 -82.6025 308° West 384 442 14,600 -2,400 Descending Cleveland Center
03:49PM 41.6797 -82.7044 308° West 372 428 12,200 -1,740 Descending Cleveland Center
03:49PM 41.7122 -82.7528 312° West 313 360 12,000 -420 Descending Cleveland Center
03:50PM 41.7567 -82.8183 312° West 282 325 11,700 -720 Descending Cleveland Center
03:51PM 41.7933 -82.8614 319° Northwest 299 344 11,000 -1,020 Descending Cleveland Center
03:52PM 41.8397 -82.9411 308° West 278 320 10,000 -1,020 Descending Cleveland Center
03:53PM 41.8669 -83.0397 290° West 278 320 9,000 -1,020 Descending Cleveland Center
03:54PM 41.8983 -83.1331 294° West 273 314 8,000 -1,020 Descending Cleveland Center
03:55PM 41.9381 -83.2211 301° West 278 320 7,000 -1,260 Descending Cleveland Center
03:56PM 41.9736 -83.3064 299° West 278 320 5,500 -1,560 Descending Cleveland Center
03:57PM 42.0153 -83.3919 303° West 272 313 3,900 -1,320 Descending Cleveland Center
03:58PM 42.0956 -83.4264 342° North 236 272 2,600 -900 Descending Cleveland Center
03:59PM 42.1422 -83.3947 27° Northeast 167 192 1,900 -780 Descending Cleveland Center
04:00PM 42.1806 -83.3656 29° Northeast 139 160 1,000 -840 Descending Cleveland Center